Aviation Digital Data Service (ADDS)

Output produced by METARs form (2114 UTC 20 November 2017)
found at http://www.aviationweather.gov/adds/metars/
 
KRWF 202053Z AUTO 21013KT 10SM CLR 10/M03 A2944 RMK AO2 SLP978 T01001033 58012
KMSP 202053Z 21006KT 10SM OVC170 08/M01 A2946 RMK AO2 SLP983 T00781006 56014